Time;durP1;ratioP1;P1;durP2;ratioP2;P2;SDS_P1;SDS_P2;PMS_P1;PMS_P2;Temp;Humidity;BMP_temperature;BMP_pressure;BME280_temperature;BME280_humidity;BME280_pressure;Samples;Min_cycle;Max_cycle;Signal;HPM_P1;HPM_P2
2022/12/26 00:01:06;;;;;;;3.50;2.83;;;11.80;99.90;;;;;;5012621;28;20214;-78
2022/12/26 00:03:31;;;;;;;2.90;2.70;;;11.80;99.90;;;;;;5007023;28;20535;-79
2022/12/26 00:05:57;;;;;;;3.80;2.80;;;11.60;99.90;;;;;;5016967;28;20201;-79
2022/12/26 00:08:22;;;;;;;3.40;2.40;;;11.60;99.90;;;;;;5011736;28;20182;-79
2022/12/26 00:10:48;;;;;;;2.90;2.70;;;11.70;99.90;;;;;;5008840;28;20192;-78
2022/12/26 00:13:13;;;;;;;2.93;2.63;;;12.20;99.90;;;;;;5012517;28;20189;-79
2022/12/26 00:15:42;;;;;;;2.73;2.53;;;11.80;99.90;;;;;;5013406;28;20183;-79
2022/12/26 00:18:07;;;;;;;2.78;2.58;;;11.60;99.90;;;;;;5008071;28;20768;-77
2022/12/26 00:20:33;;;;;;;2.87;2.67;;;11.70;99.90;;;;;;5013341;28;20286;-78
2022/12/26 00:22:59;;;;;;;3.50;2.80;;;12.20;99.90;;;;;;5012064;28;20223;-78
2022/12/26 00:25:25;;;;;;;3.28;2.97;;;11.70;99.90;;;;;;5010174;28;20196;-79
2022/12/26 00:27:50;;;;;;;2.80;2.60;;;11.60;99.90;;;;;;5012123;28;20186;-78
2022/12/26 00:30:16;;;;;;;3.03;2.83;;;12.10;99.90;;;;;;5012113;28;20232;-79
2022/12/26 00:32:41;;;;;;;3.47;3.17;;;11.70;99.90;;;;;;5010999;28;20292;-77
2022/12/26 00:35:07;;;;;;;3.27;3.03;;;12.00;99.90;;;;;;5012543;28;20221;-79
2022/12/26 00:37:33;;;;;;;3.30;3.00;;;11.70;99.90;;;;;;5008297;28;20206;-79
2022/12/26 00:39:58;;;;;;;3.03;2.73;;;12.00;99.90;;;;;;5002661;28;20196;-79
2022/12/26 00:42:24;;;;;;;3.83;3.00;;;11.70;99.90;;;;;;5010667;28;20220;-79
2022/12/26 00:44:50;;;;;;;2.93;2.73;;;12.00;99.90;;;;;;5011664;28;20186;-78
2022/12/26 00:47:15;;;;;;;3.37;3.07;;;11.60;99.90;;;;;;5002302;28;20528;-78
2022/12/26 00:49:41;;;;;;;4.00;3.43;;;11.50;99.90;;;;;;5012395;28;20425;-78
2022/12/26 00:52:06;;;;;;;3.40;3.10;;;11.50;99.90;;;;;;5011628;28;20213;-80
2022/12/26 00:54:32;;;;;;;4.03;3.20;;;11.90;99.90;;;;;;5012818;28;20197;-78
2022/12/26 00:56:57;;;;;;;3.10;2.90;;;11.50;99.90;;;;;;5021317;28;20179;-79
2022/12/26 00:59:23;;;;;;;5.07;3.87;;;11.40;99.90;;;;;;5011701;28;20226;-78
2022/12/26 01:01:48;;;;;;;4.63;3.10;;;11.20;99.90;;;;;;5012232;28;20328;-79
2022/12/26 01:04:14;;;;;;;3.53;3.23;;;11.50;99.90;;;;;;5007175;28;20221;-78
2022/12/26 01:06:39;;;;;;;2.90;2.60;;;11.50;99.90;;;;;;5012104;28;20686;-79
2022/12/26 01:09:05;;;;;;;3.90;3.10;;;11.00;99.90;;;;;;5005987;28;20237;-79
2022/12/26 01:11:40;;;;;;;3.80;3.10;;;11.40;99.90;;;;;;5011587;28;20260;-79
2022/12/26 01:14:17;;;;;;;4.20;3.40;;;11.10;99.90;;;;;;5011511;28;20182;-79
2022/12/26 01:16:44;;;;;;;3.45;2.90;;;11.50;99.90;;;;;;5010165;28;20183;-79
2022/12/26 01:19:11;;;;;;;3.38;3.08;;;11.30;99.90;;;;;;5009365;28;20649;-80
2022/12/26 01:21:37;;;;;;;3.35;3.05;;;10.90;99.90;;;;;;5013381;28;20768;-79
2022/12/26 01:24:03;;;;;;;3.15;2.85;;;11.00;99.90;;;;;;5011022;28;20227;-79
2022/12/26 01:26:29;;;;;;;3.40;3.10;;;10.90;99.90;;;;;;5012054;28;20175;-79
2022/12/26 01:28:54;;;;;;;4.57;3.50;;;10.90;99.90;;;;;;5011181;28;20433;-78
2022/12/26 01:31:21;;;;;;;3.07;2.70;;;10.90;99.90;;;;;;5010947;28;20241;-79
2022/12/26 01:33:47;;;;;;;3.08;2.80;;;10.90;99.90;;;;;;5007366;28;20194;-78
2022/12/26 01:36:13;;;;;;;3.60;3.07;;;10.80;99.90;;;;;;5010283;28;20181;-78
2022/12/26 01:38:38;;;;;;;3.05;2.75;;;11.10;99.90;;;;;;5010098;28;20865;-78
2022/12/26 01:41:16;;;;;;;3.67;3.10;;;10.70;99.90;;;;;;5010973;28;20218;-78
2022/12/26 01:44:26;;;;;;;3.22;2.92;;;10.70;99.90;;;;;;5010845;28;20173;-79
2022/12/26 01:46:52;;;;;;;3.80;3.35;;;10.70;99.90;;;;;;5010628;28;20189;-78
2022/12/26 01:49:32;;;;;;;3.30;2.80;;;10.90;99.90;;;;;;5008362;28;20195;-78
2022/12/26 01:52:02;;;;;;;5.82;3.10;;;10.30;99.90;;;;;;5003538;28;20451;-80
2022/12/26 01:54:32;;;;;;;3.15;2.85;;;10.80;99.90;;;;;;5012168;28;20190;-80
2022/12/26 01:56:58;;;;;;;4.18;3.63;;;10.80;99.90;;;;;;5014671;28;20209;-80
2022/12/26 01:59:27;;;;;;;3.45;2.83;;;11.20;99.90;;;;;;5005362;28;20276;-79
2022/12/26 02:01:53;;;;;;;3.17;2.88;;;11.10;99.90;;;;;;5010623;28;20277;-80
2022/12/26 02:07:12;;;;;;;2.90;2.53;;;10.60;99.90;;;;;;5010970;28;20189;-80
2022/12/26 02:09:38;;;;;;;2.93;2.50;;;10.70;99.90;;;;;;5005727;28;20288;-78
2022/12/26 02:12:18;;;;;;;2.50;2.30;;;11.00;99.90;;;;;;5010685;28;20456;-78
2022/12/26 02:14:44;;;;;;;2.70;2.50;;;10.90;99.90;;;;;;5017102;28;20212;-79
2022/12/26 02:17:10;;;;;;;2.80;2.47;;;11.10;99.90;;;;;;5010306;28;20235;-79
2022/12/26 02:20:04;;;;;;;3.83;2.50;;;11.00;99.90;;;;;;5007416;28;20479;-78
2022/12/26 02:23:07;;;;;;;2.80;2.60;;;10.90;99.90;;;;;;5014663;28;20227;-78
2022/12/26 02:26:11;;;;;;;2.53;2.33;;;11.00;99.90;;;;;;5012891;28;20191;-78
2022/12/26 02:28:48;;;;;;;2.70;2.50;;;10.90;99.90;;;;;;4990987;28;20424;-78
2022/12/26 02:31:39;;;;;;;2.83;2.63;;;10.80;99.90;;;;;;5016876;28;20222;-78
2022/12/26 02:34:07;;;;;;;3.03;2.72;;;11.00;99.90;;;;;;5006528;28;20734;-78
2022/12/26 02:36:44;;;;;;;3.10;2.80;;;10.70;99.90;;;;;;5013747;28;20187;-78
2022/12/26 02:39:29;;;;;;;2.30;2.10;;;11.50;99.90;;;;;;5007072;28;20199;-78
2022/12/26 02:42:26;;;;;;;3.53;2.75;;;10.80;99.90;;;;;;5013990;28;20724;-78
2022/12/26 02:48:38;;;;;;;3.15;2.88;;;10.80;99.90;;;;;;4972560;28;20260;-78
2022/12/26 03:15:01;;;;;;;2.60;2.40;;;10.70;99.90;;;;;;5008094;28;20238;-78
2022/12/26 03:17:41;;;;;;;2.80;2.55;;;10.70;99.90;;;;;;5013499;28;20196;-78
2022/12/26 03:20:12;;;;;;;2.60;2.40;;;11.40;99.90;;;;;;5010559;28;20221;-79
2022/12/26 03:22:57;;;;;;;3.92;3.60;;;11.40;99.90;;;;;;5021241;28;20713;-80
2022/12/26 03:28:29;;;;;;;2.70;2.50;;;11.50;99.90;;;;;;5013725;28;20223;-78
2022/12/26 03:30:59;;;;;;;2.83;2.37;;;11.50;99.90;;;;;;5013096;28;20186;-79
2022/12/26 03:36:33;;;;;;;3.03;2.72;;;11.50;99.90;;;;;;5014182;28;20666;-79
2022/12/26 03:39:14;;;;;;;4.13;2.40;;;11.60;99.90;;;;;;5008285;28;20633;-78
2022/12/26 04:20:21;;;;;;;3.78;2.55;;;11.60;99.90;;;;;;5013118;28;20672;-79
2022/12/26 04:45:42;;;;;;;2.63;2.42;;;12.00;99.90;;;;;;5005538;28;20697;-79
2022/12/26 04:50:54;;;;;;;2.65;2.20;;;12.30;99.90;;;;;;5012101;28;20444;-79
2022/12/26 04:53:20;;;;;;;3.63;2.50;;;12.40;99.90;;;;;;5016314;28;20182;-77
2022/12/26 04:55:46;;;;;;;2.55;2.35;;;12.60;99.90;;;;;;5009183;28;20554;-79
2022/12/26 04:58:12;;;;;;;2.60;2.40;;;12.40;99.90;;;;;;5011420;28;20685;-78
2022/12/26 05:00:37;;;;;;;2.43;2.23;;;12.70;99.90;;;;;;5011361;28;20421;-79
2022/12/26 05:11:25;;;;;;;2.55;2.20;;;12.20;99.90;;;;;;5003870;28;20288;-79
2022/12/26 05:13:52;;;;;;;2.40;2.20;;;12.30;99.90;;;;;;5011484;28;20197;-78
2022/12/26 05:30:07;;;;;;;2.25;2.00;;;12.10;99.90;;;;;;5011375;28;20213;-78
2022/12/26 05:35:17;;;;;;;3.22;2.85;;;12.00;99.90;;;;;;5012676;28;20194;-78
2022/12/26 05:37:42;;;;;;;2.40;2.20;;;11.70;99.90;;;;;;5019973;28;20182;-78
2022/12/26 05:40:08;;;;;;;2.53;2.33;;;12.10;99.90;;;;;;5005492;28;20193;-78
2022/12/26 05:42:34;;;;;;;2.73;2.53;;;12.20;99.90;;;;;;5010576;28;20702;-78
2022/12/26 05:44:59;;;;;;;3.43;2.50;;;12.50;99.90;;;;;;5010602;28;20436;-78
2022/12/26 05:47:25;;;;;;;2.50;2.30;;;11.80;99.90;;;;;;5007763;28;20652;-78
2022/12/26 05:49:52;;;;;;;2.57;2.23;;;12.50;99.90;;;;;;5010384;28;20221;-79
2022/12/26 05:52:17;;;;;;;2.60;2.40;;;12.10;99.90;;;;;;5010644;28;20492;-78
2022/12/26 05:54:43;;;;;;;2.90;2.43;;;12.40;99.90;;;;;;5005639;28;20183;-78
2022/12/26 05:57:08;;;;;;;3.00;2.50;;;12.40;99.90;;;;;;5010420;28;20210;-78
2022/12/26 05:59:34;;;;;;;2.07;1.87;;;12.20;99.90;;;;;;5008547;28;20201;-78
2022/12/26 06:01:59;;;;;;;2.80;2.40;;;12.30;99.90;;;;;;5010462;28;20230;-78
2022/12/26 06:04:25;;;;;;;2.47;2.27;;;12.70;99.90;;;;;;5010771;28;20189;-79
2022/12/26 06:06:55;;;;;;;2.85;2.00;;;12.10;99.90;;;;;;5009763;28;20308;-78
2022/12/26 06:09:21;;;;;;;2.53;2.28;;;12.60;99.90;;;;;;5006376;28;20182;-78
2022/12/26 06:11:48;;;;;;;6.47;2.60;;;12.40;99.90;;;;;;5011216;28;20207;-78
2022/12/26 06:14:13;;;;;;;2.80;2.60;;;12.40;99.90;;;;;;5010547;28;20261;-79
2022/12/26 06:16:39;;;;;;;2.50;2.30;;;12.80;99.90;;;;;;5010504;28;20578;-78
2022/12/26 06:19:04;;;;;;;2.13;2.03;;;12.50;99.90;;;;;;5005944;28;20643;-78
2022/12/26 06:21:30;;;;;;;2.57;2.30;;;12.30;99.90;;;;;;5010473;28;20219;-78
2022/12/26 06:23:55;;;;;;;2.60;2.40;;;12.40;99.90;;;;;;5006272;28;20186;-79
2022/12/26 06:26:21;;;;;;;2.40;2.20;;;12.60;99.90;;;;;;5010119;28;20179;-78
2022/12/26 06:28:46;;;;;;;2.90;2.70;;;12.60;99.90;;;;;;5011091;28;20187;-78
2022/12/26 06:31:19;;;;;;;3.00;2.70;;;12.80;99.90;;;;;;5010257;28;20189;-78
2022/12/26 06:33:45;;;;;;;2.50;2.30;;;12.60;99.90;;;;;;5001154;28;20179;-79
2022/12/26 06:36:19;;;;;;;2.93;2.47;;;12.50;99.90;;;;;;5010294;28;20732;-78
2022/12/26 06:38:45;;;;;;;2.55;2.10;;;12.40;99.90;;;;;;5007244;28;20535;-78
2022/12/26 06:41:13;;;;;;;2.30;2.10;;;12.60;99.90;;;;;;5006316;28;20230;-78
2022/12/26 06:43:39;;;;;;;2.33;2.13;;;12.90;99.90;;;;;;5008748;28;20674;-79
2022/12/26 06:46:06;;;;;;;2.28;2.08;;;12.50;99.90;;;;;;5010471;28;20355;-78
2022/12/26 06:48:38;;;;;;;2.95;2.55;;;12.30;99.90;;;;;;4998065;28;20546;-78
2022/12/26 06:51:04;;;;;;;2.30;2.15;;;12.70;99.90;;;;;;5008723;28;20214;-79
2022/12/26 06:53:30;;;;;;;2.72;2.53;;;12.70;99.90;;;;;;5011687;28;20214;-79
2022/12/26 06:56:14;;;;;;;2.60;2.40;;;12.70;99.90;;;;;;5006527;28;20214;-79
2022/12/26 06:58:41;;;;;;;2.33;2.10;;;12.90;99.90;;;;;;5010015;28;20179;-78
2022/12/26 07:01:14;;;;;;;3.47;2.38;;;12.80;99.90;;;;;;5008492;28;20207;-79
2022/12/26 07:03:41;;;;;;;3.40;2.80;;;12.80;99.90;;;;;;5006239;28;20188;-78
2022/12/26 07:06:15;;;;;;;2.58;2.38;;;12.70;99.90;;;;;;5010035;28;20214;-79
2022/12/26 07:08:41;;;;;;;2.67;2.45;;;12.70;99.90;;;;;;5008887;28;20229;-78
2022/12/26 07:11:15;;;;;;;2.40;2.20;;;12.50;99.90;;;;;;5013221;28;20238;-78
2022/12/26 07:13:42;;;;;;;3.70;2.70;;;13.20;99.90;;;;;;5012410;28;20178;-78
2022/12/26 07:16:08;;;;;;;2.80;2.60;;;13.00;99.90;;;;;;5013313;28;20183;-78
2022/12/26 07:18:34;;;;;;;2.78;2.58;;;12.80;99.90;;;;;;5011687;28;20206;-78
2022/12/26 07:20:59;;;;;;;2.60;2.40;;;12.60;99.90;;;;;;5011995;28;20621;-79
2022/12/26 07:23:24;;;;;;;2.90;2.60;;;13.10;99.90;;;;;;5012044;28;20230;-79
2022/12/26 07:25:50;;;;;;;3.43;2.90;;;12.70;99.90;;;;;;5013130;28;20273;-79
2022/12/26 07:28:15;;;;;;;2.93;2.70;;;12.60;99.90;;;;;;5011695;28;20189;-78
2022/12/26 07:30:48;;;;;;;2.50;2.30;;;12.90;99.90;;;;;;5014254;28;20186;-79
2022/12/26 07:33:14;;;;;;;3.45;2.20;;;12.70;99.90;;;;;;5011221;28;20194;-78
2022/12/26 07:35:40;;;;;;;2.60;2.40;;;12.60;99.90;;;;;;5013429;28;20182;-79
2022/12/26 07:38:05;;;;;;;2.07;1.97;;;13.00;99.90;;;;;;5012804;28;20205;-78
2022/12/26 07:40:31;;;;;;;2.17;2.07;;;12.30;99.90;;;;;;5005623;28;20203;-79
2022/12/26 07:42:56;;;;;;;2.90;2.70;;;12.90;99.90;;;;;;5012710;28;20699;-79
2022/12/26 07:45:22;;;;;;;3.43;3.23;;;13.00;99.90;;;;;;5012509;28;20175;-79
2022/12/26 07:47:51;;;;;;;3.07;2.77;;;12.50;99.90;;;;;;5007740;28;20214;-80
2022/12/26 07:50:17;;;;;;;2.97;2.60;;;12.50;99.90;;;;;;5012919;28;21002;-77
2022/12/26 07:52:42;;;;;;;3.10;2.57;;;12.60;99.90;;;;;;5013460;28;20289;-77
2022/12/26 07:55:08;;;;;;;2.80;2.60;;;12.80;99.90;;;;;;5005568;28;20190;-78
2022/12/26 07:57:33;;;;;;;3.47;3.13;;;12.60;99.90;;;;;;5012423;28;20186;-79
2022/12/26 07:59:59;;;;;;;3.03;2.67;;;12.70;99.90;;;;;;5012814;28;20448;-79
2022/12/26 08:02:24;;;;;;;3.50;3.20;;;12.30;99.90;;;;;;5012579;28;20254;-79
2022/12/26 08:04:50;;;;;;;5.17;3.20;;;12.80;99.90;;;;;;5005653;28;20709;-80
2022/12/26 08:07:15;;;;;;;3.20;2.90;;;12.60;99.90;;;;;;5012420;28;20555;-79
2022/12/26 08:09:43;;;;;;;3.23;2.80;;;12.40;99.90;;;;;;5008239;28;20658;-78
2022/12/26 08:12:09;;;;;;;2.90;2.70;;;12.40;99.90;;;;;;5012294;28;20213;-78
2022/12/26 08:14:36;;;;;;;3.30;3.00;;;12.50;99.90;;;;;;5012313;28;20190;-78
2022/12/26 08:17:01;;;;;;;3.05;2.75;;;13.40;99.90;;;;;;5011981;28;20214;-78
2022/12/26 08:19:27;;;;;;;3.47;3.17;;;12.40;99.90;;;;;;5006793;28;20277;-80
2022/12/26 08:21:52;;;;;;;2.67;2.47;;;13.00;99.90;;;;;;5011877;28;20577;-78
2022/12/26 08:24:18;;;;;;;4.00;3.37;;;12.80;99.90;;;;;;5009519;28;20785;-78
2022/12/26 08:26:44;;;;;;;3.80;3.17;;;12.40;99.90;;;;;;5010992;28;20189;-78
2022/12/26 08:29:09;;;;;;;2.93;2.73;;;12.70;99.90;;;;;;5012319;28;20202;-79
2022/12/26 08:31:35;;;;;;;4.03;3.63;;;12.50;99.90;;;;;;5012596;28;20227;-78
2022/12/26 08:34:01;;;;;;;4.83;3.30;;;12.50;99.90;;;;;;5005441;28;20270;-79
2022/12/26 08:36:26;;;;;;;3.93;2.70;;;12.20;99.90;;;;;;5008217;28;20186;-79
2022/12/26 08:38:52;;;;;;;3.93;3.53;;;12.50;99.90;;;;;;5007408;28;20443;-77
2022/12/26 08:41:18;;;;;;;6.05;3.13;;;12.40;99.90;;;;;;5008337;28;20210;-78
2022/12/26 08:43:48;;;;;;;3.40;3.10;;;13.40;99.90;;;;;;5012206;28;20194;-78
2022/12/26 08:46:13;;;;;;;3.17;2.88;;;12.60;99.90;;;;;;5011103;28;20740;-78
2022/12/26 08:48:40;;;;;;;3.63;3.33;;;13.30;99.90;;;;;;5004327;28;20199;-79
2022/12/26 08:51:12;;;;;;;2.97;2.78;;;12.80;99.90;;;;;;5011482;28;20234;-78
2022/12/26 08:53:38;;;;;;;3.60;3.30;;;12.60;99.90;;;;;;5013789;28;20181;-79
2022/12/26 08:56:05;;;;;;;3.60;3.20;;;12.80;99.90;;;;;;5011620;28;20186;-78
2022/12/26 08:58:32;;;;;;;3.80;3.50;;;12.10;99.90;;;;;;5011464;28;20193;-78
2022/12/26 09:01:09;;;;;;;4.90;3.42;;;12.30;99.90;;;;;;5011499;28;20186;-79
2022/12/26 09:03:35;;;;;;;3.63;3.33;;;12.40;99.90;;;;;;5009780;28;20833;-80
2022/12/26 09:06:02;;;;;;;4.53;3.80;;;12.60;99.90;;;;;;5011222;28;20278;-79
2022/12/26 09:08:29;;;;;;;3.85;3.55;;;12.80;99.90;;;;;;5010503;28;20236;-79
2022/12/26 09:10:55;;;;;;;4.50;4.10;;;12.60;99.90;;;;;;5009171;28;20194;-77
2022/12/26 09:13:22;;;;;;;4.28;3.88;;;12.80;99.90;;;;;;5011187;28;20179;-78
2022/12/26 09:15:47;;;;;;;4.97;3.75;;;13.00;99.90;;;;;;5010862;28;20662;-80
2022/12/26 09:18:13;;;;;;;5.03;3.80;;;12.60;99.90;;;;;;5009930;28;20648;-78
2022/12/26 09:20:38;;;;;;;4.30;3.90;;;12.80;99.90;;;;;;5010224;28;20197;-78
2022/12/26 09:23:04;;;;;;;4.40;3.80;;;12.40;99.90;;;;;;5010906;28;20795;-78
2022/12/26 09:25:29;;;;;;;4.00;3.37;;;12.60;99.90;;;;;;4999618;28;20183;-78
2022/12/26 09:27:55;;;;;;;4.17;3.43;;;12.30;99.90;;;;;;5010516;28;20651;-78
2022/12/26 09:30:21;;;;;;;3.50;3.17;;;12.30;99.90;;;;;;5007775;28;20276;-78
2022/12/26 09:32:47;;;;;;;3.65;3.25;;;12.50;99.90;;;;;;5010562;28;20229;-77
2022/12/26 09:35:13;;;;;;;3.90;3.33;;;12.50;99.90;;;;;;5001675;28;20194;-77
2022/12/26 09:37:39;;;;;;;3.70;3.23;;;12.10;99.90;;;;;;5010958;28;21203;-78
2022/12/26 09:40:10;;;;;;;3.70;3.27;;;12.30;99.90;;;;;;5002182;28;20187;-78
2022/12/26 09:42:55;;;;;;;3.80;3.40;;;12.60;99.90;;;;;;5011610;28;20612;-78
2022/12/26 09:45:36;;;;;;;4.13;3.72;;;12.50;99.90;;;;;;4999751;28;20186;-78
2022/12/26 09:48:18;;;;;;;5.00;4.20;;;12.30;99.90;;;;;;5007563;28;20646;-77
2022/12/26 09:50:49;;;;;;;4.55;4.15;;;12.30;99.90;;;;;;5006387;28;20189;-78
2022/12/26 09:53:18;;;;;;;6.20;4.70;;;12.60;99.90;;;;;;5015906;28;20200;-78
2022/12/26 09:55:58;;;;;;;5.65;4.22;;;12.60;99.90;;;;;;5006938;28;20219;-78
2022/12/26 09:58:41;;;;;;;6.93;4.45;;;12.20;99.90;;;;;;5012390;28;20762;-78
2022/12/26 10:01:14;;;;;;;5.55;4.05;;;12.20;99.90;;;;;;5009289;28;20674;-79
2022/12/26 10:03:49;;;;;;;5.15;4.65;;;12.10;99.90;;;;;;5005949;28;20187;-79
2022/12/26 10:06:26;;;;;;;6.47;5.03;;;12.20;99.90;;;;;;5010167;28;20170;-78
2022/12/26 10:09:17;;;;;;;6.28;3.90;;;11.70;99.90;;;;;;5006426;28;20251;-78
2022/12/26 10:12:04;;;;;;;5.70;4.10;;;11.80;99.90;;;;;;5008232;28;20226;-78
2022/12/26 10:14:54;;;;;;;8.15;4.50;;;12.20;99.90;;;;;;5012651;28;20197;-78
2022/12/26 10:17:30;;;;;;;5.10;4.10;;;12.20;99.90;;;;;;5005192;28;20197;-79
2022/12/26 10:20:28;;;;;;;5.93;4.55;;;12.10;99.90;;;;;;5010258;28;20612;-78
2022/12/26 10:23:27;;;;;;;4.38;3.72;;;12.20;99.90;;;;;;5007661;28;20321;-78
2022/12/26 10:25:56;;;;;;;4.30;3.40;;;12.10;99.90;;;;;;5000096;28;20189;-79
2022/12/26 10:28:46;;;;;;;4.30;3.70;;;12.60;99.90;;;;;;5009938;28;20265;-79
2022/12/26 10:31:24;;;;;;;4.22;3.40;;;11.90;99.90;;;;;;5008637;28;20205;-77
2022/12/26 10:34:10;;;;;;;4.57;3.70;;;11.90;99.90;;;;;;5008260;28;20192;-79
2022/12/26 10:36:47;;;;;;;3.78;3.30;;;12.00;99.90;;;;;;5008981;28;20216;-78
2022/12/26 10:39:21;;;;;;;3.97;3.30;;;11.70;99.90;;;;;;5003247;28;20182;-79
2022/12/26 10:41:51;;;;;;;5.30;3.88;;;11.90;99.90;;;;;;4998288;28;20222;-78
2022/12/26 10:44:16;;;;;;;4.40;4.00;;;12.20;99.90;;;;;;5014162;28;20194;-79
2022/12/26 10:47:01;;;;;;;3.73;3.43;;;12.40;99.90;;;;;;5013624;28;20190;-79
2022/12/26 10:49:27;;;;;;;3.75;3.20;;;11.90;99.90;;;;;;5011038;28;20187;-79
2022/12/26 10:51:57;;;;;;;3.80;2.97;;;12.00;99.90;;;;;;5013537;28;20214;-78
2022/12/26 10:54:23;;;;;;;3.92;3.55;;;12.10;99.90;;;;;;5015859;28;20200;-78
2022/12/26 10:56:50;;;;;;;3.20;2.83;;;12.20;99.90;;;;;;5013302;28;20197;-78
2022/12/26 10:59:19;;;;;;;3.47;3.17;;;12.40;99.90;;;;;;5013531;28;20272;-78
2022/12/26 11:01:46;;;;;;;2.60;2.40;;;12.40;99.90;;;;;;5014617;28;20212;-78
2022/12/26 11:04:18;;;;;;;3.17;2.92;;;12.00;99.90;;;;;;5014230;28;20187;-79
2022/12/26 11:06:46;;;;;;;3.00;2.70;;;12.10;99.90;;;;;;5013081;28;20587;-79
2022/12/26 11:09:34;;;;;;;4.15;3.75;;;12.60;99.90;;;;;;5011747;28;20175;-79
2022/12/26 11:12:01;;;;;;;5.57;4.60;;;12.30;99.90;;;;;;5013108;28;20202;-78
2022/12/26 11:14:36;;;;;;;4.05;3.20;;;12.10;99.90;;;;;;5013453;28;20700;-79
2022/12/26 11:17:08;;;;;;;3.90;2.85;;;12.40;99.90;;;;;;5023663;28;20709;-79
2022/12/26 11:19:40;;;;;;;3.58;2.63;;;12.30;99.90;;;;;;5007986;28;20280;-78
2022/12/26 11:22:21;;;;;;;2.88;2.35;;;12.50;99.90;;;;;;5013227;28;20210;-79
2022/12/26 11:25:08;;;;;;;2.22;1.92;;;12.40;99.90;;;;;;5007011;28;20185;-78
2022/12/26 11:27:35;;;;;;;3.30;2.30;;;12.30;99.90;;;;;;5011442;28;20187;-78
2022/12/26 11:30:13;;;;;;;2.33;1.80;;;12.30;99.90;;;;;;5012711;28;20178;-78
2022/12/26 11:32:44;;;;;;;3.30;2.00;;;12.50;99.90;;;;;;5012284;28;20215;-78
2022/12/26 11:35:25;;;;;;;2.72;1.80;;;12.40;99.90;;;;;;5013539;28;20182;-78
2022/12/26 11:37:56;;;;;;;2.78;2.15;;;12.50;99.90;;;;;;5012377;28;20210;-78
2022/12/26 11:40:32;;;;;;;1.90;1.45;;;12.40;99.90;;;;;;5007147;28;20577;-78
2022/12/26 11:43:00;;;;;;;1.52;1.42;;;12.00;99.90;;;;;;5012604;28;20224;-78
2022/12/26 11:45:29;;;;;;;1.60;1.50;;;12.60;99.90;;;;;;5012079;28;20194;-79
2022/12/26 11:47:57;;;;;;;1.50;1.40;;;12.20;99.90;;;;;;5003096;28;20802;-78
2022/12/26 11:50:26;;;;;;;2.22;1.55;;;12.30;99.90;;;;;;5013625;28;20837;-79
2022/12/26 11:52:55;;;;;;;1.65;1.42;;;12.30;99.90;;;;;;5013325;28;20209;-79
2022/12/26 11:55:32;;;;;;;2.97;1.30;;;12.10;99.90;;;;;;5012738;28;20662;-78
2022/12/26 11:58:00;;;;;;;1.38;1.27;;;12.20;99.90;;;;;;5001260;28;20186;-78
2022/12/26 12:00:27;;;;;;;1.45;1.35;;;12.40;99.90;;;;;;5011897;28;20178;-79
2022/12/26 12:02:53;;;;;;;1.20;1.10;;;12.10;99.90;;;;;;5010591;28;20217;-79
2022/12/26 12:05:32;;;;;;;1.57;1.30;;;12.20;99.90;;;;;;5010696;28;20186;-78
2022/12/26 12:08:13;;;;;;;1.65;1.55;;;11.80;99.90;;;;;;5012686;28;20432;-78
2022/12/26 12:10:57;;;;;;;4.15;1.60;;;11.90;99.90;;;;;;5010207;28;20198;-78
2022/12/26 12:13:47;;;;;;;1.30;1.20;;;12.00;99.90;;;;;;5012102;28;20532;-79
2022/12/26 12:16:42;;;;;;;1.95;1.20;;;12.40;99.90;;;;;;5010090;28;20186;-78
2022/12/26 12:19:34;;;;;;;1.67;1.58;;;12.50;99.90;;;;;;5016786;28;20191;-79
2022/12/26 12:22:30;;;;;;;1.15;1.05;;;12.10;99.90;;;;;;5012057;28;20237;-79
2022/12/26 12:25:34;;;;;;;1.38;1.05;;;12.70;99.90;;;;;;5006427;28;20302;-80
2022/12/26 12:28:23;;;;;;;1.35;1.25;;;12.70;99.90;;;;;;5026872;28;20186;-79
2022/12/26 12:31:05;;;;;;;1.23;1.08;;;12.20;99.90;;;;;;5018534;28;20322;-78
2022/12/26 12:33:36;;;;;;;1.20;1.10;;;12.50;99.90;;;;;;5008660;28;20217;-79
2022/12/26 12:36:05;;;;;;;1.52;1.15;;;12.70;99.90;;;;;;5006510;28;20193;-78
2022/12/26 12:38:49;;;;;;;2.75;1.48;;;12.60;99.90;;;;;;5009494;28;20191;-79
2022/12/26 12:41:34;;;;;;;1.60;1.20;;;12.60;99.90;;;;;;5008784;28;20591;-78
2022/12/26 12:44:04;;;;;;;2.80;1.13;;;12.70;99.90;;;;;;5019521;28;20286;-78
2022/12/26 12:46:41;;;;;;;1.55;1.30;;;12.40;99.90;;;;;;5008714;28;20179;-79
2022/12/26 12:49:29;;;;;;;1.20;1.10;;;12.90;99.90;;;;;;5006103;28;20182;-78
2022/12/26 12:52:00;;;;;;;2.08;1.25;;;12.70;99.90;;;;;;5011172;28;20206;-78
2022/12/26 12:54:56;;;;;;;1.60;1.50;;;12.80;99.90;;;;;;5020682;28;20194;-78
2022/12/26 12:57:36;;;;;;;1.70;1.13;;;12.70;99.90;;;;;;5011277;28;20187;-78
2022/12/26 13:00:23;;;;;;;1.70;1.55;;;12.70;99.90;;;;;;5011651;28;20190;-78
2022/12/26 13:03:03;;;;;;;1.90;1.80;;;12.70;99.90;;;;;;5003178;28;20215;-79
2022/12/26 13:06:07;;;;;;;3.95;2.00;;;12.80;99.90;;;;;;5006982;28;20190;-78
2022/12/26 13:08:44;;;;;;;1.40;1.30;;;12.90;99.90;;;;;;5007817;28;20189;-78
2022/12/26 13:11:16;;;;;;;1.95;1.77;;;12.80;99.90;;;;;;5001424;28;20214;-78
2022/12/26 13:13:53;;;;;;;1.65;1.45;;;12.70;99.90;;;;;;5009528;28;20312;-80
2022/12/26 13:16:23;;;;;;;1.60;1.20;;;12.50;99.90;;;;;;5011666;28;20616;-78
2022/12/26 13:18:54;;;;;;;2.60;1.50;;;12.60;99.90;;;;;;5013212;28;20213;-79
2022/12/26 13:21:21;;;;;;;1.67;1.58;;;13.10;99.90;;;;;;5010925;28;20203;-77
2022/12/26 13:26:45;;;;;;;1.15;1.05;;;12.90;99.90;;;;;;5010707;28;20201;-78
2022/12/26 13:29:14;;;;;;;0.85;0.85;;;12.70;99.90;;;;;;5009276;28;20571;-80
2022/12/26 13:31:41;;;;;;;1.38;1.10;;;12.50;99.90;;;;;;5009224;28;20237;-79
2022/12/26 13:34:15;;;;;;;0.93;0.88;;;12.50;99.90;;;;;;5009485;28;20643;-78
2022/12/26 13:36:54;;;;;;;1.33;0.93;;;12.60;99.90;;;;;;5009628;28;20201;-78
2022/12/26 13:39:25;;;;;;;1.00;0.77;;;12.80;99.90;;;;;;5002728;28;20183;-78
2022/12/26 13:44:45;;;;;;;1.02;0.80;;;12.60;99.90;;;;;;5010711;28;20298;-78
2022/12/26 13:47:37;;;;;;;0.98;0.93;;;12.60;99.90;;;;;;5009253;28;20269;-77
2022/12/26 13:50:40;;;;;;;1.13;1.02;;;12.80;99.90;;;;;;5012899;28;20199;-78
2022/12/26 13:53:24;;;;;;;0.82;0.82;;;12.60;99.90;;;;;;5002558;28;20186;-78
2022/12/26 13:56:03;;;;;;;1.13;1.02;;;13.10;99.90;;;;;;5007978;28;20191;-78
2022/12/26 13:58:50;;;;;;;1.52;0.80;;;12.60;99.90;;;;;;5010322;28;20186;-78
2022/12/26 14:01:50;;;;;;;0.80;0.80;;;12.50;99.90;;;;;;5008718;28;20301;-78
2022/12/26 14:04:53;;;;;;;1.02;0.93;;;12.50;99.90;;;;;;5024672;28;20194;-78
2022/12/26 14:07:39;;;;;;;1.20;1.10;;;12.50;99.90;;;;;;5011836;28;20663;-79
2022/12/26 14:10:22;;;;;;;0.98;0.88;;;12.50;99.90;;;;;;5005016;28;20229;-79
2022/12/26 14:12:57;;;;;;;1.60;1.13;;;12.80;99.90;;;;;;5010279;28;20218;-78
2022/12/26 14:15:34;;;;;;;1.40;1.10;;;12.70;99.90;;;;;;4998282;28;20288;-78
2022/12/26 14:18:20;;;;;;;1.30;1.00;;;12.50;99.90;;;;;;5012909;28;20600;-78
2022/12/26 14:20:49;;;;;;;1.20;1.10;;;12.50;99.90;;;;;;5014597;28;20272;-78
2022/12/26 14:23:44;;;;;;;1.25;1.15;;;12.40;99.90;;;;;;5027466;28;20567;-78
2022/12/26 14:26:31;;;;;;;1.20;1.10;;;12.40;99.90;;;;;;5004968;28;20289;-78
2022/12/26 14:29:06;;;;;;;1.40;1.30;;;12.40;99.90;;;;;;5014331;28;20174;-78
2022/12/26 14:31:44;;;;;;;1.75;1.55;;;12.40;99.90;;;;;;5018114;28;20194;-78
2022/12/26 14:34:37;;;;;;;1.77;1.23;;;12.40;99.90;;;;;;5014286;28;20202;-78
2022/12/26 14:37:08;;;;;;;1.55;1.45;;;12.50;99.90;;;;;;5027992;28;20187;-79
2022/12/26 14:39:56;;;;;;;2.03;1.40;;;12.30;99.90;;;;;;5025381;28;20683;-80
2022/12/26 14:45:27;;;;;;;2.72;1.35;;;12.20;99.90;;;;;;5002040;28;20277;-79
2022/12/26 14:47:53;;;;;;;1.65;1.55;;;12.20;99.90;;;;;;5006469;28;20183;-78
2022/12/26 14:50:31;;;;;;;1.73;1.33;;;11.70;99.90;;;;;;5012849;28;21049;-79
2022/12/26 14:53:27;;;;;;;1.45;1.35;;;12.10;99.90;;;;;;5015992;28;20202;-79
2022/12/26 14:56:10;;;;;;;1.70;1.33;;;12.20;99.90;;;;;;5011700;28;20557;-79
2022/12/26 14:58:50;;;;;;;2.60;1.50;;;12.30;99.90;;;;;;5015020;28;20182;-79
2022/12/26 15:01:19;;;;;;;2.17;1.00;;;12.20;99.90;;;;;;5010794;28;20284;-79
2022/12/26 15:04:06;;;;;;;1.45;1.20;;;12.60;99.90;;;;;;5025114;28;20195;-79
2022/12/26 15:07:01;;;;;;;1.30;1.20;;;12.10;99.90;;;;;;5011700;28;20695;-79
2022/12/26 15:09:45;;;;;;;1.13;1.02;;;12.20;99.90;;;;;;5008385;28;20198;-79
2022/12/26 15:12:38;;;;;;;1.30;1.17;;;12.10;99.90;;;;;;5026281;28;20209;-79
2022/12/26 15:15:27;;;;;;;1.30;1.20;;;12.00;99.90;;;;;;5012418;28;20190;-79
2022/12/26 15:18:08;;;;;;;1.25;1.15;;;12.20;99.90;;;;;;5012412;28;20178;-79
2022/12/26 15:20:58;;;;;;;1.27;1.10;;;12.00;99.90;;;;;;5013304;28;20186;-79
2022/12/26 15:23:45;;;;;;;1.30;1.20;;;11.80;99.90;;;;;;5010585;28;20712;-78
2022/12/26 15:26:26;;;;;;;1.45;1.13;;;12.00;99.90;;;;;;5021085;28;20201;-77
2022/12/26 15:29:19;;;;;;;1.27;1.00;;;11.80;99.90;;;;;;5011079;28;20190;-79
2022/12/26 15:32:06;;;;;;;1.20;1.00;;;12.10;99.90;;;;;;5011912;28;20257;-79